sensor_id;sensor_type;location;lat;lon;timestamp;P1;durP1;ratioP1;P2;durP2;ratioP2
54641;SDS011;40536;53.194;5.728;2022-12-08T07:22:27;797.58;;;503.92;;
54641;SDS011;40536;53.194;5.728;2022-12-08T08:11:11;675.20;;;602.55;;
54641;SDS011;40536;53.194;5.728;2022-12-08T11:42:09;130.50;;;125.07;;
54641;SDS011;40536;53.194;5.728;2022-12-08T11:45:30;95.45;;;91.50;;
54641;SDS011;40536;53.194;5.728;2022-12-08T11:48:49;82.22;;;78.55;;
54641;SDS011;40536;53.194;5.728;2022-12-08T11:56:05;78.63;;;75.35;;
54641;SDS011;40536;53.194;5.728;2022-12-08T12:03:21;62.30;;;59.53;;
54641;SDS011;40536;53.194;5.728;2022-12-08T13:06:31;72.35;;;69.28;;
54641;SDS011;40536;53.194;5.728;2022-12-08T14:31:06;438.00;;;414.85;;
54641;SDS011;40536;53.194;5.728;2022-12-08T14:37:13;424.58;;;399.75;;
54641;SDS011;40536;53.194;5.728;2022-12-08T14:54:36;488.63;;;459.63;;
54641;SDS011;40536;53.194;5.728;2022-12-08T15:38:52;641.28;;;586.13;;
54641;SDS011;40536;53.194;5.728;2022-12-08T15:41:58;653.15;;;599.78;;
54641;SDS011;40536;53.194;5.728;2022-12-08T15:44:40;646.03;;;592.67;;
54641;SDS011;40536;53.194;5.728;2022-12-08T15:47:55;636.60;;;584.85;;
54641;SDS011;40536;53.194;5.728;2022-12-08T16:07:46;609.90;;;563.60;;
54641;SDS011;40536;53.194;5.728;2022-12-08T16:26:27;564.88;;;527.97;;
54641;SDS011;40536;53.194;5.728;2022-12-08T16:32:20;624.40;;;576.15;;
54641;SDS011;40536;53.194;5.728;2022-12-08T16:46:13;575.60;;;534.95;;
54641;SDS011;40536;53.194;5.728;2022-12-08T16:49:04;585.33;;;539.47;;
54641;SDS011;40536;53.194;5.728;2022-12-08T16:51:42;570.15;;;520.15;;
54641;SDS011;40536;53.194;5.728;2022-12-08T16:54:33;594.83;;;548.20;;
54641;SDS011;40536;53.194;5.728;2022-12-08T17:00:58;630.47;;;575.03;;
54641;SDS011;40536;53.194;5.728;2022-12-08T17:03:50;603.75;;;552.92;;
54641;SDS011;40536;53.194;5.728;2022-12-08T17:06:51;541.42;;;501.38;;
54641;SDS011;40536;53.194;5.728;2022-12-08T17:09:44;388.65;;;369.58;;
54641;SDS011;40536;53.194;5.728;2022-12-08T17:12:10;536.28;;;499.63;;
54641;SDS011;40536;53.194;5.728;2022-12-08T17:14:38;529.65;;;495.52;;
54641;SDS011;40536;53.194;5.728;2022-12-08T17:17:23;485.80;;;457.27;;
54641;SDS011;40536;53.194;5.728;2022-12-08T17:19:51;440.83;;;412.17;;
54641;SDS011;40536;53.194;5.728;2022-12-08T17:22:24;440.42;;;413.98;;
54641;SDS011;40536;53.194;5.728;2022-12-08T17:24:55;446.50;;;420.92;;
54641;SDS011;40536;53.194;5.728;2022-12-08T17:27:29;436.13;;;412.42;;
54641;SDS011;40536;53.194;5.728;2022-12-08T17:29:57;408.15;;;387.02;;
54641;SDS011;40536;53.194;5.728;2022-12-08T17:32:28;370.45;;;352.55;;
54641;SDS011;40536;53.194;5.728;2022-12-08T17:34:56;310.88;;;296.80;;
54641;SDS011;40536;53.194;5.728;2022-12-08T17:37:22;303.33;;;289.63;;
54641;SDS011;40536;53.194;5.728;2022-12-08T17:39:48;332.75;;;317.77;;
54641;SDS011;40536;53.194;5.728;2022-12-08T17:42:13;380.73;;;362.25;;
54641;SDS011;40536;53.194;5.728;2022-12-08T17:44:39;453.40;;;426.00;;
54641;SDS011;40536;53.194;5.728;2022-12-08T17:47:05;523.22;;;490.00;;
54641;SDS011;40536;53.194;5.728;2022-12-08T17:49:31;638.08;;;572.20;;
54641;SDS011;40536;53.194;5.728;2022-12-08T17:51:58;597.63;;;538.65;;
54641;SDS011;40536;53.194;5.728;2022-12-08T17:54:27;636.30;;;576.03;;
54641;SDS011;40536;53.194;5.728;2022-12-08T17:56:55;638.25;;;576.78;;
54641;SDS011;40536;53.194;5.728;2022-12-08T17:59:23;643.60;;;579.60;;
54641;SDS011;40536;53.194;5.728;2022-12-08T18:01:53;643.03;;;579.40;;
54641;SDS011;40536;53.194;5.728;2022-12-08T18:04:20;638.22;;;573.58;;
54641;SDS011;40536;53.194;5.728;2022-12-08T18:06:46;608.85;;;546.00;;
54641;SDS011;40536;53.194;5.728;2022-12-08T18:09:12;618.00;;;557.13;;
54641;SDS011;40536;53.194;5.728;2022-12-08T18:11:38;620.75;;;563.72;;
54641;SDS011;40536;53.194;5.728;2022-12-08T18:14:06;614.67;;;558.80;;
54641;SDS011;40536;53.194;5.728;2022-12-08T18:16:40;609.20;;;556.83;;
54641;SDS011;40536;53.194;5.728;2022-12-08T18:19:10;592.35;;;536.45;;
54641;SDS011;40536;53.194;5.728;2022-12-08T18:21:57;573.47;;;518.90;;
54641;SDS011;40536;53.194;5.728;2022-12-08T18:24:25;515.03;;;476.02;;
54641;SDS011;40536;53.194;5.728;2022-12-08T18:26:53;653.60;;;585.80;;
54641;SDS011;40536;53.194;5.728;2022-12-08T18:29:20;645.78;;;580.80;;
54641;SDS011;40536;53.194;5.728;2022-12-08T18:31:47;640.67;;;576.38;;
54641;SDS011;40536;53.194;5.728;2022-12-08T18:34:17;660.67;;;590.70;;
54641;SDS011;40536;53.194;5.728;2022-12-08T18:36:45;636.38;;;552.60;;
54641;SDS011;40536;53.194;5.728;2022-12-08T18:39:19;627.33;;;563.42;;
54641;SDS011;40536;53.194;5.728;2022-12-08T18:41:50;640.78;;;576.47;;
54641;SDS011;40536;53.194;5.728;2022-12-08T18:44:17;765.20;;;594.80;;
54641;SDS011;40536;53.194;5.728;2022-12-08T18:46:43;643.60;;;577.17;;
54641;SDS011;40536;53.194;5.728;2022-12-08T18:49:13;699.95;;;594.33;;
54641;SDS011;40536;53.194;5.728;2022-12-08T18:51:41;688.22;;;563.03;;
54641;SDS011;40536;53.194;5.728;2022-12-08T18:54:09;708.53;;;573.10;;
54641;SDS011;40536;53.194;5.728;2022-12-08T18:56:36;708.70;;;593.08;;
54641;SDS011;40536;53.194;5.728;2022-12-08T18:59:04;719.58;;;593.03;;
54641;SDS011;40536;53.194;5.728;2022-12-08T19:01:32;663.22;;;586.67;;
54641;SDS011;40536;53.194;5.728;2022-12-08T19:04:00;664.30;;;590.92;;
54641;SDS011;40536;53.194;5.728;2022-12-08T19:06:29;651.05;;;556.90;;
54641;SDS011;40536;53.194;5.728;2022-12-08T19:08:55;653.78;;;581.58;;
54641;SDS011;40536;53.194;5.728;2022-12-08T19:11:24;647.90;;;580.45;;
54641;SDS011;40536;53.194;5.728;2022-12-08T19:13:52;647.15;;;580.33;;
54641;SDS011;40536;53.194;5.728;2022-12-08T19:16:18;630.78;;;569.13;;
54641;SDS011;40536;53.194;5.728;2022-12-08T19:18:44;619.03;;;558.45;;
54641;SDS011;40536;53.194;5.728;2022-12-08T19:21:11;637.28;;;574.70;;
54641;SDS011;40536;53.194;5.728;2022-12-08T19:23:40;618.63;;;560.83;;
54641;SDS011;40536;53.194;5.728;2022-12-08T19:26:07;631.65;;;571.60;;
54641;SDS011;40536;53.194;5.728;2022-12-08T19:28:34;609.70;;;552.42;;
54641;SDS011;40536;53.194;5.728;2022-12-08T19:31:04;591.58;;;535.30;;
54641;SDS011;40536;53.194;5.728;2022-12-08T19:33:30;583.42;;;527.08;;
54641;SDS011;40536;53.194;5.728;2022-12-08T19:35:57;614.53;;;552.75;;
54641;SDS011;40536;53.194;5.728;2022-12-08T19:38:23;605.33;;;545.42;;
54641;SDS011;40536;53.194;5.728;2022-12-08T19:40:50;649.60;;;580.60;;
54641;SDS011;40536;53.194;5.728;2022-12-08T19:43:34;624.50;;;558.45;;
54641;SDS011;40536;53.194;5.728;2022-12-08T19:46:18;608.90;;;548.08;;
54641;SDS011;40536;53.194;5.728;2022-12-08T19:48:44;613.72;;;549.88;;
54641;SDS011;40536;53.194;5.728;2022-12-08T19:51:11;590.60;;;526.70;;
54641;SDS011;40536;53.194;5.728;2022-12-08T19:56:08;614.30;;;551.65;;
54641;SDS011;40536;53.194;5.728;2022-12-08T19:58:34;596.70;;;537.83;;
54641;SDS011;40536;53.194;5.728;2022-12-08T20:01:01;609.30;;;548.47;;
54641;SDS011;40536;53.194;5.728;2022-12-08T20:03:27;587.90;;;530.70;;
54641;SDS011;40536;53.194;5.728;2022-12-08T20:05:53;724.28;;;587.22;;
54641;SDS011;40536;53.194;5.728;2022-12-08T20:08:18;576.63;;;515.20;;
54641;SDS011;40536;53.194;5.728;2022-12-08T20:10:44;567.83;;;512.00;;
54641;SDS011;40536;53.194;5.728;2022-12-08T20:13:12;608.60;;;548.92;;
54641;SDS011;40536;53.194;5.728;2022-12-08T20:15:57;576.40;;;518.70;;
54641;SDS011;40536;53.194;5.728;2022-12-08T20:18:27;530.60;;;480.83;;
54641;SDS011;40536;53.194;5.728;2022-12-08T20:20:54;534.00;;;480.98;;
54641;SDS011;40536;53.194;5.728;2022-12-08T20:23:21;539.00;;;490.08;;
54641;SDS011;40536;53.194;5.728;2022-12-08T20:25:47;551.10;;;497.80;;
54641;SDS011;40536;53.194;5.728;2022-12-08T20:28:13;542.83;;;494.92;;
54641;SDS011;40536;53.194;5.728;2022-12-08T20:30:39;628.83;;;544.83;;
54641;SDS011;40536;53.194;5.728;2022-12-08T20:33:06;592.55;;;530.38;;
54641;SDS011;40536;53.194;5.728;2022-12-08T20:35:36;605.95;;;538.30;;
54641;SDS011;40536;53.194;5.728;2022-12-08T20:38:02;569.33;;;509.50;;
54641;SDS011;40536;53.194;5.728;2022-12-08T20:40:28;587.67;;;524.70;;
54641;SDS011;40536;53.194;5.728;2022-12-08T20:42:56;579.60;;;519.80;;
54641;SDS011;40536;53.194;5.728;2022-12-08T20:45:22;634.05;;;560.88;;
54641;SDS011;40536;53.194;5.728;2022-12-08T20:47:48;574.40;;;518.22;;
54641;SDS011;40536;53.194;5.728;2022-12-08T20:50:14;535.90;;;485.10;;
54641;SDS011;40536;53.194;5.728;2022-12-08T20:52:40;440.55;;;409.08;;
54641;SDS011;40536;53.194;5.728;2022-12-08T20:55:06;483.92;;;446.15;;
54641;SDS011;40536;53.194;5.728;2022-12-08T20:57:32;490.02;;;450.27;;
54641;SDS011;40536;53.194;5.728;2022-12-08T20:59:58;599.15;;;534.67;;
54641;SDS011;40536;53.194;5.728;2022-12-08T21:02:25;672.15;;;551.55;;
54641;SDS011;40536;53.194;5.728;2022-12-08T21:04:50;418.52;;;389.90;;
54641;SDS011;40536;53.194;5.728;2022-12-08T21:07:19;616.03;;;519.70;;
54641;SDS011;40536;53.194;5.728;2022-12-08T21:09:45;643.97;;;528.40;;
54641;SDS011;40536;53.194;5.728;2022-12-08T21:12:11;553.50;;;496.40;;
54641;SDS011;40536;53.194;5.728;2022-12-08T21:14:38;464.15;;;427.77;;
54641;SDS011;40536;53.194;5.728;2022-12-08T21:17:04;443.20;;;411.60;;
54641;SDS011;40536;53.194;5.728;2022-12-08T21:19:29;682.28;;;542.78;;
54641;SDS011;40536;53.194;5.728;2022-12-08T21:21:55;730.92;;;518.25;;
54641;SDS011;40536;53.194;5.728;2022-12-08T21:24:21;681.50;;;530.35;;
54641;SDS011;40536;53.194;5.728;2022-12-08T21:26:47;511.20;;;461.75;;
54641;SDS011;40536;53.194;5.728;2022-12-08T21:29:13;538.35;;;484.83;;
54641;SDS011;40536;53.194;5.728;2022-12-08T21:31:38;761.85;;;541.75;;
54641;SDS011;40536;53.194;5.728;2022-12-08T21:34:04;868.90;;;580.88;;
54641;SDS011;40536;53.194;5.728;2022-12-08T21:36:30;841.03;;;574.85;;
54641;SDS011;40536;53.194;5.728;2022-12-08T21:38:56;942.42;;;567.22;;
54641;SDS011;40536;53.194;5.728;2022-12-08T21:41:26;968.65;;;583.83;;
54641;SDS011;40536;53.194;5.728;2022-12-08T21:44:12;893.38;;;589.20;;
54641;SDS011;40536;53.194;5.728;2022-12-08T21:46:39;904.15;;;585.83;;
54641;SDS011;40536;53.194;5.728;2022-12-08T21:49:06;826.38;;;578.25;;
54641;SDS011;40536;53.194;5.728;2022-12-08T21:51:32;907.15;;;579.10;;
54641;SDS011;40536;53.194;5.728;2022-12-08T21:54:01;858.13;;;586.63;;
54641;SDS011;40536;53.194;5.728;2022-12-08T21:56:27;940.47;;;593.90;;
54641;SDS011;40536;53.194;5.728;2022-12-08T21:58:54;867.85;;;574.80;;
54641;SDS011;40536;53.194;5.728;2022-12-08T22:01:19;889.40;;;576.03;;
54641;SDS011;40536;53.194;5.728;2022-12-08T22:03:45;915.35;;;580.22;;
54641;SDS011;40536;53.194;5.728;2022-12-08T22:06:12;1003.25;;;586.53;;
54641;SDS011;40536;53.194;5.728;2022-12-08T22:08:38;955.65;;;577.78;;
54641;SDS011;40536;53.194;5.728;2022-12-08T22:11:05;980.47;;;597.38;;
54641;SDS011;40536;53.194;5.728;2022-12-08T22:13:35;890.35;;;602.03;;
54641;SDS011;40536;53.194;5.728;2022-12-08T22:16:04;975.22;;;593.97;;
54641;SDS011;40536;53.194;5.728;2022-12-08T22:18:32;965.83;;;595.08;;
54641;SDS011;40536;53.194;5.728;2022-12-08T22:20:58;1067.82;;;601.95;;
54641;SDS011;40536;53.194;5.728;2022-12-08T22:23:24;1030.70;;;595.35;;
54641;SDS011;40536;53.194;5.728;2022-12-08T22:25:56;1040.05;;;596.22;;
54641;SDS011;40536;53.194;5.728;2022-12-08T22:28:23;786.10;;;579.75;;
54641;SDS011;40536;53.194;5.728;2022-12-08T22:30:49;767.75;;;590.05;;
54641;SDS011;40536;53.194;5.728;2022-12-08T22:33:15;934.47;;;627.47;;
54641;SDS011;40536;53.194;5.728;2022-12-08T22:35:40;785.72;;;646.20;;
54641;SDS011;40536;53.194;5.728;2022-12-08T22:38:06;770.05;;;649.53;;
54641;SDS011;40536;53.194;5.728;2022-12-08T22:40:32;680.20;;;599.58;;
54641;SDS011;40536;53.194;5.728;2022-12-08T22:42:57;629.40;;;567.90;;
54641;SDS011;40536;53.194;5.728;2022-12-08T22:45:23;594.83;;;533.03;;
54641;SDS011;40536;53.194;5.728;2022-12-08T22:47:48;685.20;;;575.50;;
54641;SDS011;40536;53.194;5.728;2022-12-08T22:50:14;641.22;;;575.85;;
54641;SDS011;40536;53.194;5.728;2022-12-08T22:52:40;633.85;;;569.50;;
54641;SDS011;40536;53.194;5.728;2022-12-08T22:55:05;641.50;;;571.67;;
54641;SDS011;40536;53.194;5.728;2022-12-08T22:57:31;664.85;;;575.80;;
54641;SDS011;40536;53.194;5.728;2022-12-08T22:59:57;678.67;;;578.72;;
54641;SDS011;40536;53.194;5.728;2022-12-08T23:02:23;698.85;;;572.05;;
54641;SDS011;40536;53.194;5.728;2022-12-08T23:04:49;663.72;;;563.53;;
54641;SDS011;40536;53.194;5.728;2022-12-08T23:07:14;621.30;;;556.88;;
54641;SDS011;40536;53.194;5.728;2022-12-08T23:09:40;612.13;;;546.92;;
54641;SDS011;40536;53.194;5.728;2022-12-08T23:12:06;626.90;;;563.70;;
54641;SDS011;40536;53.194;5.728;2022-12-08T23:14:31;594.50;;;540.78;;
54641;SDS011;40536;53.194;5.728;2022-12-08T23:16:57;781.17;;;613.38;;
54641;SDS011;40536;53.194;5.728;2022-12-08T23:19:23;770.53;;;615.45;;
54641;SDS011;40536;53.194;5.728;2022-12-08T23:21:48;855.13;;;630.33;;
54641;SDS011;40536;53.194;5.728;2022-12-08T23:24:14;943.70;;;624.53;;
54641;SDS011;40536;53.194;5.728;2022-12-08T23:26:39;896.90;;;615.50;;
54641;SDS011;40536;53.194;5.728;2022-12-08T23:29:07;922.75;;;614.05;;
54641;SDS011;40536;53.194;5.728;2022-12-08T23:31:32;844.35;;;595.03;;
54641;SDS011;40536;53.194;5.728;2022-12-08T23:33:58;758.88;;;553.28;;
54641;SDS011;40536;53.194;5.728;2022-12-08T23:36:25;599.72;;;534.38;;
54641;SDS011;40536;53.194;5.728;2022-12-08T23:38:51;565.13;;;512.22;;
54641;SDS011;40536;53.194;5.728;2022-12-08T23:41:18;548.97;;;504.15;;
54641;SDS011;40536;53.194;5.728;2022-12-08T23:43:44;559.20;;;504.05;;
54641;SDS011;40536;53.194;5.728;2022-12-08T23:46:11;493.38;;;451.10;;
54641;SDS011;40536;53.194;5.728;2022-12-08T23:48:37;1036.75;;;608.20;;
54641;SDS011;40536;53.194;5.728;2022-12-08T23:51:04;923.58;;;609.22;;
54641;SDS011;40536;53.194;5.728;2022-12-08T23:53:30;890.28;;;608.85;;
54641;SDS011;40536;53.194;5.728;2022-12-08T23:55:57;876.08;;;620.05;;
54641;SDS011;40536;53.194;5.728;2022-12-08T23:58:25;854.15;;;617.88;;
